createdAt,value
2022-12-14T00:01:55.695Z,-4.60
2022-12-14T00:04:23.375Z,-4.60
2022-12-14T00:06:50.614Z,-4.50
2022-12-14T00:09:17.903Z,-4.50
2022-12-14T00:11:45.305Z,-4.50
2022-12-14T00:14:12.555Z,-4.60
2022-12-14T00:16:39.758Z,-4.60
2022-12-14T00:19:06.986Z,-4.60
2022-12-14T00:21:35.234Z,-4.50
2022-12-14T00:24:04.219Z,-4.50
2022-12-14T00:26:33.453Z,-4.50
2022-12-14T00:29:02.187Z,-4.40
2022-12-14T00:31:30.345Z,-4.40
2022-12-14T00:33:59.273Z,-4.40
2022-12-14T00:36:27.222Z,-4.40
2022-12-14T00:38:54.416Z,-4.30
2022-12-14T00:41:21.816Z,-4.30
2022-12-14T00:43:49.224Z,-4.40
2022-12-14T00:46:18.299Z,-4.40
2022-12-14T00:48:47.397Z,-4.40
2022-12-14T00:51:15.273Z,-4.40
2022-12-14T00:53:45.197Z,-4.40
2022-12-14T00:56:12.886Z,-4.40
2022-12-14T00:58:40.190Z,-4.40
2022-12-14T01:01:13.956Z,-4.40
2022-12-14T01:03:42.913Z,-4.30
2022-12-14T01:06:15.943Z,-4.30
2022-12-14T01:08:43.739Z,-4.30
2022-12-14T01:11:12.448Z,-4.30
2022-12-14T01:13:40.773Z,-4.30
2022-12-14T01:16:12.129Z,-4.30
2022-12-14T01:18:41.842Z,-4.30
2022-12-14T01:21:13.545Z,-4.40
2022-12-14T01:23:42.009Z,-4.30
2022-12-14T01:26:09.805Z,-4.30
2022-12-14T01:28:37.231Z,-4.30
2022-12-14T01:31:14.259Z,-4.30
2022-12-14T01:33:41.957Z,-4.20
2022-12-14T01:36:11.846Z,-4.30
2022-12-14T01:38:39.472Z,-4.30
2022-12-14T01:41:08.304Z,-4.30
2022-12-14T01:43:50.786Z,-4.20
2022-12-14T01:46:36.587Z,-4.20
2022-12-14T01:49:18.673Z,-4.20
2022-12-14T01:51:56.553Z,-4.10
2022-12-14T01:54:26.470Z,-4.10
2022-12-14T01:56:55.283Z,-4.00
2022-12-14T01:59:29.523Z,-4.00
2022-12-14T02:01:59.497Z,-3.90
2022-12-14T02:04:29.984Z,-3.90
2022-12-14T02:07:01.267Z,-3.90
2022-12-14T02:09:34.256Z,-3.80
2022-12-14T02:12:19.407Z,-3.80
2022-12-14T02:14:47.936Z,-3.80
2022-12-14T02:17:16.976Z,-3.90
2022-12-14T02:19:44.327Z,-3.90
2022-12-14T02:22:23.138Z,-3.90
2022-12-14T02:25:18.012Z,-3.90
2022-12-14T02:27:51.196Z,-3.90
2022-12-14T02:30:23.048Z,-3.90
2022-12-14T02:33:11.729Z,-3.90
2022-12-14T02:35:59.308Z,-3.90
2022-12-14T02:38:44.543Z,-3.90
2022-12-14T02:41:23.858Z,-3.90
2022-12-14T02:44:12.484Z,-3.90
2022-12-14T02:47:14.390Z,-3.80
2022-12-14T02:49:49.618Z,-3.80
2022-12-14T02:52:37.383Z,-3.80
2022-12-14T02:55:29.789Z,-3.80
2022-12-14T02:58:22.356Z,-3.70
2022-12-14T03:00:50.470Z,-3.70
2022-12-14T03:03:18.887Z,-3.70
2022-12-14T03:06:27.787Z,-3.60
2022-12-14T03:08:59.866Z,-3.60
2022-12-14T03:11:36.976Z,-3.60
2022-12-14T03:14:13.064Z,-3.60
2022-12-14T03:16:53.715Z,-3.60
2022-12-14T03:19:32.707Z,-3.50
2022-12-14T03:22:06.613Z,-3.50
2022-12-14T03:24:44.754Z,-3.40
2022-12-14T03:27:27.518Z,-3.40
2022-12-14T03:30:03.786Z,-3.40
2022-12-14T03:32:34.163Z,-3.30
2022-12-14T03:35:15.222Z,-3.30
2022-12-14T03:37:56.863Z,-3.30
2022-12-14T03:40:32.209Z,-3.30
2022-12-14T03:43:16.847Z,-3.20
2022-12-14T03:46:11.985Z,-3.20
2022-12-14T03:48:56.844Z,-3.10
2022-12-14T03:51:51.672Z,-3.10
2022-12-14T03:54:28.647Z,-3.10
2022-12-14T03:57:20.097Z,-3.10
2022-12-14T04:00:05.246Z,-3.00
2022-12-14T04:02:49.598Z,-3.00
2022-12-14T04:05:48.979Z,-3.00
2022-12-14T04:08:35.454Z,-2.90
2022-12-14T04:11:23.428Z,-2.90
2022-12-14T04:14:36.396Z,-2.90
2022-12-14T04:17:27.858Z,-2.90
2022-12-14T04:20:18.142Z,-2.80
2022-12-14T04:22:52.713Z,-2.80
2022-12-14T04:25:48.870Z,-2.80
2022-12-14T04:28:59.546Z,-2.80
2022-12-14T04:31:30.931Z,-2.70
2022-12-14T04:34:03.637Z,-2.70
2022-12-14T04:36:31.816Z,-2.60
2022-12-14T04:39:08.148Z,-2.60
2022-12-14T04:41:41.681Z,-2.60
2022-12-14T04:44:32.874Z,-2.60
2022-12-14T04:47:02.523Z,-2.50
2022-12-14T04:49:31.832Z,-2.50
2022-12-14T04:52:20.283Z,-2.50
2022-12-14T04:54:58.519Z,-2.40
2022-12-14T04:57:48.327Z,-2.40
2022-12-14T05:00:17.141Z,-2.40
2022-12-14T05:03:25.821Z,-2.40
2022-12-14T05:06:07.515Z,-2.40
2022-12-14T05:09:05.927Z,-2.30
2022-12-14T05:11:56.440Z,-2.30
2022-12-14T05:14:52.219Z,-2.30
2022-12-14T05:17:20.648Z,-2.30
2022-12-14T05:19:49.848Z,-2.40
2022-12-14T05:22:18.524Z,-2.30
2022-12-14T05:24:45.842Z,-2.30
2022-12-14T05:27:13.391Z,-2.30
2022-12-14T05:29:41.597Z,-2.10
2022-12-14T05:32:11.806Z,-2.30
2022-12-14T05:34:39.104Z,-2.30
2022-12-14T05:37:07.027Z,-2.30
2022-12-14T05:39:34.321Z,-2.30
2022-12-14T05:42:02.279Z,-2.30
2022-12-14T05:44:29.644Z,-2.30
2022-12-14T05:46:56.885Z,-2.30
2022-12-14T05:49:24.327Z,-2.30
2022-12-14T05:51:53.261Z,-2.40
2022-12-14T05:54:20.665Z,-2.30
2022-12-14T05:56:47.941Z,-2.40
2022-12-14T05:59:17.111Z,-2.40
2022-12-14T06:01:49.614Z,-2.40
2022-12-14T06:04:19.039Z,-2.40
2022-12-14T06:06:46.991Z,-2.40
2022-12-14T06:09:16.248Z,-2.40
2022-12-14T06:11:44.750Z,-2.40
2022-12-14T06:14:14.897Z,-2.40
2022-12-14T06:16:46.961Z,-2.40
2022-12-14T06:19:15.868Z,-2.40
2022-12-14T06:21:45.263Z,-2.40
2022-12-14T06:24:14.160Z,-2.40
2022-12-14T06:26:41.902Z,-2.40
2022-12-14T06:29:16.158Z,-2.40
2022-12-14T06:31:45.190Z,-2.40
2022-12-14T06:34:18.402Z,-2.40
2022-12-14T06:36:47.430Z,-2.40
2022-12-14T06:39:16.766Z,-2.40
2022-12-14T06:41:48.964Z,-2.40
2022-12-14T06:44:17.332Z,-2.40
2022-12-14T06:46:45.351Z,-2.30
2022-12-14T06:49:14.889Z,-2.40
2022-12-14T06:51:42.872Z,-2.40
2022-12-14T06:54:12.895Z,-2.40
2022-12-14T06:56:41.579Z,-2.30
2022-12-14T06:59:09.518Z,-2.30
2022-12-14T07:01:37.873Z,-2.30
2022-12-14T07:04:07.011Z,-2.30
2022-12-14T07:06:37.877Z,-2.30
2022-12-14T07:09:09.248Z,-2.30
2022-12-14T07:11:37.619Z,-2.30
2022-12-14T07:14:06.562Z,-2.30
2022-12-14T07:16:37.332Z,-2.30
2022-12-14T07:19:05.567Z,-2.30
2022-12-14T07:21:37.125Z,-2.30
2022-12-14T07:24:08.838Z,-3.00
2022-12-14T07:26:37.620Z,-2.30
2022-12-14T07:29:04.987Z,-2.30
2022-12-14T07:31:32.279Z,-2.30
2022-12-14T07:34:00.501Z,-2.30
2022-12-14T07:36:29.450Z,-2.20
2022-12-14T07:38:57.953Z,-2.20
2022-12-14T07:41:28.190Z,-2.20
2022-12-14T07:43:56.388Z,-2.30
2022-12-14T07:46:26.862Z,-2.30
2022-12-14T07:48:57.789Z,-2.30
2022-12-14T07:51:30.447Z,-2.30
2022-12-14T07:53:58.915Z,-2.30
2022-12-14T07:56:30.354Z,-2.30
2022-12-14T07:58:59.792Z,-2.20
2022-12-14T08:01:33.005Z,-2.20
2022-12-14T08:04:05.481Z,-2.20
2022-12-14T08:06:35.438Z,-2.20
2022-12-14T08:09:03.095Z,-2.20
2022-12-14T08:11:31.468Z,-2.20
2022-12-14T08:14:04.850Z,-2.20
2022-12-14T08:16:32.966Z,-2.20
2022-12-14T08:19:01.090Z,-2.20
2022-12-14T08:21:29.879Z,-2.10
2022-12-14T08:23:58.198Z,-2.10
2022-12-14T08:26:31.646Z,-2.10
2022-12-14T08:29:02.766Z,-2.10
2022-12-14T08:31:30.315Z,-2.00
2022-12-14T08:34:02.267Z,-2.00
2022-12-14T08:36:34.532Z,-2.00
2022-12-14T08:39:04.903Z,-2.00
2022-12-14T08:41:34.831Z,-1.90
2022-12-14T08:44:03.506Z,-1.90
2022-12-14T08:46:33.311Z,-1.90
2022-12-14T08:49:00.796Z,-1.90
2022-12-14T08:51:29.824Z,-1.90
2022-12-14T08:53:58.448Z,-1.90
2022-12-14T08:56:28.058Z,-1.90
2022-12-14T08:58:57.845Z,-1.90
2022-12-14T09:01:33.403Z,-1.80
2022-12-14T09:04:09.188Z,-1.80
2022-12-14T09:06:39.852Z,-1.80
2022-12-14T09:09:15.692Z,-1.70
2022-12-14T09:11:45.978Z,-1.70
2022-12-14T09:14:13.970Z,-1.70
2022-12-14T09:16:42.348Z,-1.60
2022-12-14T09:19:09.935Z,-1.60
2022-12-14T09:21:38.749Z,-1.60
2022-12-14T09:24:07.184Z,-1.60
2022-12-14T09:26:35.458Z,-1.60
2022-12-14T09:29:02.611Z,-1.50
2022-12-14T09:31:30.301Z,-1.50
2022-12-14T09:33:57.949Z,-1.50
2022-12-14T09:36:34.045Z,-1.40
2022-12-14T09:39:04.485Z,-1.40
2022-12-14T09:41:34.901Z,-1.40
2022-12-14T09:44:17.709Z,-1.30
2022-12-14T09:47:23.909Z,-1.40
2022-12-14T09:50:17.503Z,-1.30
2022-12-14T09:53:00.851Z,-1.40
2022-12-14T09:55:44.548Z,-1.40
2022-12-14T09:58:20.519Z,-1.40
2022-12-14T10:01:14.367Z,-1.40
2022-12-14T10:03:58.352Z,-1.40
2022-12-14T10:06:45.540Z,-1.40
2022-12-14T10:09:31.108Z,-1.40
2022-12-14T10:12:22.404Z,-1.40
2022-12-14T10:14:53.667Z,-1.40
2022-12-14T10:17:55.321Z,-1.30
2022-12-14T10:20:50.194Z,-1.30
2022-12-14T10:23:24.929Z,-1.40
2022-12-14T10:25:56.814Z,-1.30
2022-12-14T10:28:57.815Z,-1.30
2022-12-14T10:31:41.238Z,-1.30
2022-12-14T10:34:25.138Z,-1.30
2022-12-14T10:36:52.524Z,-1.30
2022-12-14T10:39:36.830Z,-1.20
2022-12-14T10:42:28.048Z,-1.30
2022-12-14T10:45:39.766Z,-1.20
2022-12-14T10:48:22.237Z,-1.20
2022-12-14T10:51:12.032Z,-1.20
2022-12-14T10:53:45.241Z,-1.20
2022-12-14T10:56:30.205Z,-1.20
2022-12-14T10:59:17.660Z,-1.20
2022-12-14T11:02:07.746Z,-1.10
2022-12-14T11:04:47.521Z,-1.20
2022-12-14T11:07:18.798Z,-1.20
2022-12-14T11:09:47.146Z,-1.20
2022-12-14T11:12:14.497Z,-1.10
2022-12-14T11:15:03.892Z,-1.10
2022-12-14T11:17:32.377Z,-1.10
2022-12-14T11:20:09.132Z,-1.10
2022-12-14T11:23:21.038Z,-1.10
2022-12-14T11:25:55.797Z,-1.10
2022-12-14T11:28:41.876Z,-1.10
2022-12-14T11:31:13.923Z,-1.10
2022-12-14T11:33:49.946Z,-1.20
2022-12-14T11:36:32.013Z,-1.20
2022-12-14T11:39:24.414Z,-1.20
2022-12-14T11:42:01.729Z,-1.20
2022-12-14T11:44:36.521Z,-1.20
2022-12-14T11:47:20.192Z,-1.20
2022-12-14T11:49:51.393Z,-1.20
2022-12-14T11:52:25.309Z,-1.10
2022-12-14T11:54:52.442Z,-1.20
2022-12-14T11:57:56.140Z,-1.10
2022-12-14T12:00:46.801Z,-1.10
2022-12-14T12:03:23.553Z,-1.20
2022-12-14T12:05:54.300Z,-1.10
2022-12-14T12:08:27.661Z,-1.10
2022-12-14T12:11:02.556Z,-1.10
2022-12-14T12:13:42.131Z,-1.00
2022-12-14T12:16:20.028Z,-1.00
2022-12-14T12:18:57.413Z,-1.00
2022-12-14T12:21:41.318Z,-1.00
2022-12-14T12:24:22.527Z,-1.00
2022-12-14T12:26:57.010Z,-0.90
2022-12-14T12:29:45.419Z,-0.90
2022-12-14T12:32:32.124Z,-1.00
2022-12-14T12:35:17.030Z,-1.00
2022-12-14T12:38:07.981Z,-1.00
2022-12-14T12:40:53.652Z,-1.00
2022-12-14T12:43:49.880Z,-1.00
2022-12-14T12:46:33.182Z,-1.00
2022-12-14T12:49:07.221Z,-1.00
2022-12-14T12:51:59.753Z,-1.00
2022-12-14T12:54:40.005Z,-1.00
2022-12-14T12:57:11.841Z,-1.00
2022-12-14T12:59:59.583Z,-1.00
2022-12-14T13:02:38.172Z,-1.00
2022-12-14T13:05:45.019Z,-1.00
2022-12-14T13:08:18.953Z,-1.00
2022-12-14T13:13:42.030Z,-1.00
2022-12-14T13:16:36.545Z,-1.00
2022-12-14T13:19:48.735Z,-1.00
2022-12-14T13:22:15.011Z,-1.00
2022-12-14T13:24:47.409Z,-1.00
2022-12-14T13:27:59.651Z,-1.00
2022-12-14T13:30:52.869Z,-1.00
2022-12-14T13:33:41.452Z,-1.00
2022-12-14T13:36:51.249Z,-1.00
2022-12-14T13:39:50.834Z,-1.00
2022-12-14T13:42:40.961Z,-1.00
2022-12-14T13:45:20.496Z,-1.00
2022-12-14T13:47:55.582Z,-1.00
2022-12-14T13:50:46.371Z,-1.00
2022-12-14T13:53:48.381Z,-1.00
2022-12-14T13:56:38.148Z,-1.00
2022-12-14T13:59:21.901Z,-1.00
2022-12-14T14:01:49.217Z,-1.00
2022-12-14T14:04:18.649Z,-1.00
2022-12-14T14:06:48.324Z,-1.00
2022-12-14T14:09:30.920Z,-1.00
2022-12-14T14:12:03.428Z,-1.00
2022-12-14T14:14:58.253Z,-1.00
2022-12-14T14:17:35.424Z,-1.00
2022-12-14T14:20:26.210Z,-1.00
2022-12-14T14:23:21.982Z,-1.00
2022-12-14T14:25:49.340Z,-1.00
2022-12-14T14:28:22.630Z,-1.10
2022-12-14T14:30:54.894Z,-1.00
2022-12-14T14:33:55.334Z,-1.10
2022-12-14T14:36:37.281Z,-1.10
2022-12-14T14:39:54.271Z,-1.10
2022-12-14T14:42:21.226Z,-1.00
2022-12-14T14:44:59.422Z,-1.10
2022-12-14T14:47:36.100Z,-1.10
2022-12-14T14:50:17.360Z,-1.10
2022-12-14T14:52:56.830Z,-1.10
2022-12-14T14:55:52.530Z,-1.10
2022-12-14T14:58:32.439Z,-1.10
2022-12-14T15:01:25.265Z,-1.00
2022-12-14T15:04:04.505Z,-1.10
2022-12-14T15:06:40.505Z,-1.00
2022-12-14T15:09:36.403Z,-1.00
2022-12-14T15:12:23.489Z,-1.00
2022-12-14T15:15:00.455Z,-1.00
2022-12-14T15:17:28.021Z,-1.00
2022-12-14T15:20:00.210Z,-1.00
2022-12-14T15:22:30.903Z,-1.00
2022-12-14T15:25:06.010Z,-1.00
2022-12-14T15:27:37.471Z,-1.00
2022-12-14T15:30:12.541Z,-0.90
2022-12-14T15:32:47.654Z,-1.00
2022-12-14T15:35:21.157Z,-1.00
2022-12-14T15:38:00.173Z,-0.90
2022-12-14T15:40:31.311Z,-0.90
2022-12-14T15:43:02.550Z,-0.90
2022-12-14T15:45:44.440Z,-0.90
2022-12-14T15:48:27.928Z,-0.90
2022-12-14T15:51:06.002Z,-0.90
2022-12-14T15:53:43.061Z,-0.90
2022-12-14T15:56:34.947Z,-0.90
2022-12-14T15:59:16.738Z,-0.90
2022-12-14T16:01:55.156Z,-0.90
2022-12-14T16:04:29.301Z,-0.90
2022-12-14T16:07:22.351Z,-0.90
2022-12-14T16:09:54.766Z,-0.90
2022-12-14T16:12:38.336Z,-0.90
2022-12-14T16:15:42.946Z,-0.80
2022-12-14T16:18:16.341Z,-0.80
2022-12-14T16:20:57.418Z,-0.80
2022-12-14T16:23:31.802Z,-0.80
2022-12-14T16:26:03.711Z,-0.80
2022-12-14T16:28:36.012Z,-0.80
2022-12-14T16:31:13.653Z,-0.80
2022-12-14T16:33:43.595Z,-0.80
2022-12-14T16:36:25.940Z,-0.80
2022-12-14T16:39:20.759Z,-0.80
2022-12-14T16:42:03.141Z,-0.80
2022-12-14T16:44:33.399Z,-0.80
2022-12-14T16:47:38.258Z,-0.70
2022-12-14T16:53:26.762Z,-0.70
2022-12-14T16:56:15.497Z,-0.60
2022-12-14T16:59:04.579Z,-0.60
2022-12-14T17:01:42.129Z,-0.60
2022-12-14T17:04:14.279Z,-0.60
2022-12-14T17:06:56.801Z,-0.60
2022-12-14T17:09:27.798Z,-0.50
2022-12-14T17:11:58.373Z,-0.50
2022-12-14T17:14:28.042Z,-0.50
2022-12-14T17:17:01.945Z,-0.50
2022-12-14T17:19:38.019Z,-0.50
2022-12-14T17:22:16.100Z,-0.50
2022-12-14T17:24:44.082Z,-0.50
2022-12-14T17:27:19.012Z,-0.40
2022-12-14T17:29:49.874Z,-0.40
2022-12-14T17:32:19.537Z,-0.50
2022-12-14T17:34:46.892Z,-0.50
2022-12-14T17:37:16.726Z,-0.50
2022-12-14T17:39:54.246Z,-0.50
2022-12-14T17:42:31.939Z,-0.50
2022-12-14T17:45:07.921Z,-0.40
2022-12-14T17:47:36.896Z,-0.40
2022-12-14T17:50:16.068Z,-0.40
2022-12-14T17:52:49.201Z,-0.40
2022-12-14T17:55:29.774Z,-0.40
2022-12-14T17:58:05.342Z,-0.40
2022-12-14T18:00:59.313Z,-0.30
2022-12-14T18:03:32.643Z,-0.40
2022-12-14T18:06:00.517Z,-0.30
2022-12-14T18:08:28.027Z,-0.30
2022-12-14T18:10:59.887Z,-0.30
2022-12-14T18:13:31.587Z,-0.30
2022-12-14T18:16:00.843Z,-0.30
2022-12-14T18:18:30.269Z,-0.30
2022-12-14T18:21:01.489Z,-0.30
2022-12-14T18:23:32.474Z,-0.30
2022-12-14T18:26:02.964Z,-0.30
2022-12-14T18:28:43.363Z,-0.30
2022-12-14T18:31:36.632Z,-0.30
2022-12-14T18:34:04.999Z,-0.30
2022-12-14T18:36:32.520Z,-0.30
2022-12-14T18:39:01.273Z,-0.30
2022-12-14T18:41:29.824Z,-0.30
2022-12-14T18:43:57.946Z,-0.30
2022-12-14T18:46:39.747Z,-0.30
2022-12-14T18:49:07.167Z,-0.30
2022-12-14T18:51:35.400Z,-0.20
2022-12-14T18:54:03.586Z,-0.20
2022-12-14T18:56:30.895Z,-0.20
2022-12-14T18:59:00.829Z,-0.20
2022-12-14T19:01:35.722Z,-0.20
2022-12-14T19:04:03.555Z,-0.20
2022-12-14T19:06:46.417Z,-0.20
2022-12-14T19:09:15.144Z,-0.20
2022-12-14T19:11:44.516Z,-0.20
2022-12-14T19:14:12.723Z,-0.20
2022-12-14T19:16:42.318Z,-0.20
2022-12-14T19:19:09.659Z,-0.20
2022-12-14T19:21:38.665Z,-0.20
2022-12-14T19:24:09.014Z,-0.20
2022-12-14T19:26:39.408Z,-0.20
2022-12-14T19:29:07.914Z,-0.20
2022-12-14T19:31:36.039Z,-0.20
2022-12-14T19:34:03.273Z,-0.10
2022-12-14T19:36:34.154Z,-0.20
2022-12-14T19:39:03.109Z,-0.20
2022-12-14T19:41:30.580Z,-0.20
2022-12-14T19:43:58.849Z,-0.20
2022-12-14T19:46:26.663Z,-0.10
2022-12-14T19:48:55.798Z,-0.20
2022-12-14T19:51:25.411Z,-0.20
2022-12-14T19:54:12.240Z,-0.20
2022-12-14T19:56:46.501Z,-0.20
2022-12-14T19:59:19.736Z,-0.20
2022-12-14T20:01:49.107Z,-0.10
2022-12-14T20:04:17.423Z,-0.20
2022-12-14T20:06:45.042Z,-0.20
2022-12-14T20:09:19.348Z,-0.20
2022-12-14T20:11:47.883Z,-0.10
2022-12-14T20:14:16.112Z,-0.20
2022-12-14T20:16:46.825Z,-0.20
2022-12-14T20:19:15.424Z,-0.20
2022-12-14T20:21:43.872Z,-0.10
2022-12-14T20:24:15.663Z,-0.20
2022-12-14T20:26:42.895Z,-0.20
2022-12-14T20:29:11.329Z,-0.20
2022-12-14T20:31:44.978Z,-0.20
2022-12-14T20:34:12.518Z,-0.20
2022-12-14T20:36:40.646Z,-0.20
2022-12-14T20:39:09.929Z,-0.20
2022-12-14T20:41:39.658Z,-0.20
2022-12-14T20:44:12.206Z,-0.20
2022-12-14T20:46:45.757Z,-0.20
2022-12-14T20:49:18.090Z,-0.20
2022-12-14T20:51:46.777Z,-0.20
2022-12-14T20:54:19.334Z,-0.30
2022-12-14T20:56:49.293Z,-0.30
2022-12-14T20:59:17.263Z,-0.20
2022-12-14T21:01:51.836Z,-0.20
2022-12-14T21:04:24.802Z,-0.20
2022-12-14T21:06:53.212Z,-0.20
2022-12-14T21:09:22.551Z,-0.30
2022-12-14T21:12:09.647Z,-0.20
2022-12-14T21:14:42.755Z,-0.20
2022-12-14T21:17:11.436Z,-0.20
2022-12-14T21:19:39.207Z,-0.10
2022-12-14T21:22:08.903Z,-0.10
2022-12-14T21:25:01.659Z,-0.10
2022-12-14T21:27:32.023Z,-0.10
2022-12-14T21:30:00.976Z,-0.10
2022-12-14T21:32:30.247Z,-0.10
2022-12-14T21:35:03.737Z,-0.10
2022-12-14T21:37:49.928Z,-0.10
2022-12-14T21:40:37.222Z,-0.10
2022-12-14T21:43:07.540Z,-0.10
2022-12-14T21:45:34.923Z,-0.10
2022-12-14T21:48:11.603Z,-0.10
2022-12-14T21:50:42.603Z,-0.10
2022-12-14T21:53:10.813Z,0.00
2022-12-14T21:55:37.984Z,-0.10
2022-12-14T21:58:17.243Z,-0.10
2022-12-14T22:00:47.632Z,-0.10
2022-12-14T22:03:15.913Z,-0.10
2022-12-14T22:05:49.323Z,-0.10
2022-12-14T22:08:17.688Z,-0.10
2022-12-14T22:10:44.887Z,-0.10
2022-12-14T22:13:18.167Z,-0.10
2022-12-14T22:15:46.443Z,-0.10
2022-12-14T22:18:16.716Z,-0.10
2022-12-14T22:20:43.907Z,-0.10
2022-12-14T22:23:12.184Z,-0.10
2022-12-14T22:25:39.378Z,-0.10
2022-12-14T22:28:08.715Z,-0.10
2022-12-14T22:30:38.459Z,-0.10
2022-12-14T22:33:08.212Z,-0.10
2022-12-14T22:35:35.493Z,-0.10
2022-12-14T22:38:02.725Z,-0.10
2022-12-14T22:40:32.147Z,-0.10
2022-12-14T22:43:00.501Z,-0.10
2022-12-14T22:45:29.676Z,-0.20
2022-12-14T22:47:59.409Z,-0.20
2022-12-14T22:50:30.682Z,-0.20
2022-12-14T22:52:57.969Z,-0.20
2022-12-14T22:55:28.144Z,-0.20
2022-12-14T22:57:56.410Z,-0.20
2022-12-14T23:00:26.970Z,-0.20
2022-12-14T23:02:55.566Z,-0.20
2022-12-14T23:05:22.972Z,-0.20
2022-12-14T23:07:50.209Z,-0.20
2022-12-14T23:10:38.832Z,-0.20
2022-12-14T23:13:25.510Z,-0.10
2022-12-14T23:16:12.295Z,-0.20
2022-12-14T23:19:13.199Z,-0.20
2022-12-14T23:22:00.090Z,-0.30
2022-12-14T23:24:48.053Z,-0.20
2022-12-14T23:27:35.158Z,-0.30
2022-12-14T23:30:27.519Z,-0.20
2022-12-14T23:33:16.083Z,-0.20
2022-12-14T23:36:01.989Z,-0.20
2022-12-14T23:38:47.894Z,-0.20
2022-12-14T23:41:39.866Z,-0.20
2022-12-14T23:44:27.787Z,-0.20
2022-12-14T23:47:21.060Z,-0.10
2022-12-14T23:50:07.816Z,-0.20
2022-12-14T23:52:54.730Z,-0.20
2022-12-14T23:55:41.620Z,-0.20
2022-12-14T23:58:28.641Z,-0.20
